sensor_id;sensor_type;location;lat;lon;timestamp;P1;durP1;ratioP1;P2;durP2;ratioP2
79412;SDS011;68863;49.528;11.010;2023-04-19T00:00:34;10.53;;;3.93;;
79412;SDS011;68863;49.528;11.010;2023-04-19T00:01:34;8.90;;;3.90;;
79412;SDS011;68863;49.528;11.010;2023-04-19T00:02:35;8.30;;;3.78;;
79412;SDS011;68863;49.528;11.010;2023-04-19T00:03:35;9.00;;;3.47;;
79412;SDS011;68863;49.528;11.010;2023-04-19T00:04:35;8.73;;;3.90;;
79412;SDS011;68863;49.528;11.010;2023-04-19T00:05:37;9.40;;;4.38;;
79412;SDS011;68863;49.528;11.010;2023-04-19T00:06:37;9.75;;;4.47;;
79412;SDS011;68863;49.528;11.010;2023-04-19T00:07:39;8.25;;;3.42;;
79412;SDS011;68863;49.528;11.010;2023-04-19T00:08:40;8.93;;;3.92;;
79412;SDS011;68863;49.528;11.010;2023-04-19T00:09:41;8.27;;;3.50;;
79412;SDS011;68863;49.528;11.010;2023-04-19T00:10:41;10.03;;;3.80;;
79412;SDS011;68863;49.528;11.010;2023-04-19T00:11:41;8.50;;;3.30;;
79412;SDS011;68863;49.528;11.010;2023-04-19T00:12:42;9.15;;;4.40;;
79412;SDS011;68863;49.528;11.010;2023-04-19T00:13:42;8.90;;;3.70;;
79412;SDS011;68863;49.528;11.010;2023-04-19T00:14:42;10.40;;;4.68;;
79412;SDS011;68863;49.528;11.010;2023-04-19T00:15:42;10.70;;;4.20;;
79412;SDS011;68863;49.528;11.010;2023-04-19T00:16:43;10.20;;;4.13;;
79412;SDS011;68863;49.528;11.010;2023-04-19T00:17:43;8.90;;;3.83;;
79412;SDS011;68863;49.528;11.010;2023-04-19T00:18:43;9.50;;;4.22;;
79412;SDS011;68863;49.528;11.010;2023-04-19T00:19:43;9.73;;;3.87;;
79412;SDS011;68863;49.528;11.010;2023-04-19T00:20:44;9.10;;;4.25;;
79412;SDS011;68863;49.528;11.010;2023-04-19T00:21:44;11.07;;;3.83;;
79412;SDS011;68863;49.528;11.010;2023-04-19T00:22:44;9.83;;;4.03;;
79412;SDS011;68863;49.528;11.010;2023-04-19T00:23:45;9.80;;;3.93;;
79412;SDS011;68863;49.528;11.010;2023-04-19T00:24:45;8.73;;;4.07;;
79412;SDS011;68863;49.528;11.010;2023-04-19T00:25:45;8.03;;;3.73;;
79412;SDS011;68863;49.528;11.010;2023-04-19T00:26:45;8.80;;;3.85;;
79412;SDS011;68863;49.528;11.010;2023-04-19T00:27:46;9.37;;;4.33;;
79412;SDS011;68863;49.528;11.010;2023-04-19T00:28:46;8.27;;;3.63;;
79412;SDS011;68863;49.528;11.010;2023-04-19T00:29:46;8.00;;;3.60;;
79412;SDS011;68863;49.528;11.010;2023-04-19T00:30:46;8.93;;;3.90;;
79412;SDS011;68863;49.528;11.010;2023-04-19T00:31:46;9.07;;;4.50;;
79412;SDS011;68863;49.528;11.010;2023-04-19T00:32:47;9.98;;;4.40;;
79412;SDS011;68863;49.528;11.010;2023-04-19T00:33:47;8.77;;;4.53;;
79412;SDS011;68863;49.528;11.010;2023-04-19T00:34:48;9.70;;;3.73;;
79412;SDS011;68863;49.528;11.010;2023-04-19T00:35:48;9.10;;;4.15;;
79412;SDS011;68863;49.528;11.010;2023-04-19T00:36:48;9.10;;;3.67;;
79412;SDS011;68863;49.528;11.010;2023-04-19T00:37:48;10.10;;;3.90;;
79412;SDS011;68863;49.528;11.010;2023-04-19T00:38:49;10.13;;;4.10;;
79412;SDS011;68863;49.528;11.010;2023-04-19T00:39:49;9.25;;;4.20;;
79412;SDS011;68863;49.528;11.010;2023-04-19T00:40:49;8.88;;;4.00;;
79412;SDS011;68863;49.528;11.010;2023-04-19T00:41:50;8.87;;;4.20;;
79412;SDS011;68863;49.528;11.010;2023-04-19T00:42:50;8.18;;;3.92;;
79412;SDS011;68863;49.528;11.010;2023-04-19T00:43:50;7.57;;;3.58;;
79412;SDS011;68863;49.528;11.010;2023-04-19T00:44:50;8.90;;;3.57;;
79412;SDS011;68863;49.528;11.010;2023-04-19T00:45:51;8.63;;;4.00;;
79412;SDS011;68863;49.528;11.010;2023-04-19T00:46:51;9.45;;;4.13;;
79412;SDS011;68863;49.528;11.010;2023-04-19T00:47:52;9.00;;;4.03;;
79412;SDS011;68863;49.528;11.010;2023-04-19T00:48:53;7.45;;;3.50;;
79412;SDS011;68863;49.528;11.010;2023-04-19T00:49:53;9.13;;;3.92;;
79412;SDS011;68863;49.528;11.010;2023-04-19T00:50:54;9.57;;;4.40;;
79412;SDS011;68863;49.528;11.010;2023-04-19T00:51:54;9.23;;;4.10;;
79412;SDS011;68863;49.528;11.010;2023-04-19T00:52:55;9.05;;;3.83;;
79412;SDS011;68863;49.528;11.010;2023-04-19T00:53:56;9.43;;;4.05;;
79412;SDS011;68863;49.528;11.010;2023-04-19T00:54:57;9.30;;;3.92;;
79412;SDS011;68863;49.528;11.010;2023-04-19T00:55:58;8.50;;;3.80;;
79412;SDS011;68863;49.528;11.010;2023-04-19T00:57:03;10.88;;;4.13;;
79412;SDS011;68863;49.528;11.010;2023-04-19T00:58:04;10.18;;;4.07;;
79412;SDS011;68863;49.528;11.010;2023-04-19T00:59:06;10.82;;;4.35;;
79412;SDS011;68863;49.528;11.010;2023-04-19T01:00:07;9.75;;;4.50;;
79412;SDS011;68863;49.528;11.010;2023-04-19T01:01:08;8.57;;;3.92;;
79412;SDS011;68863;49.528;11.010;2023-04-19T01:02:09;10.30;;;4.03;;
79412;SDS011;68863;49.528;11.010;2023-04-19T01:03:09;10.10;;;4.13;;
79412;SDS011;68863;49.528;11.010;2023-04-19T01:04:09;8.93;;;4.30;;
79412;SDS011;68863;49.528;11.010;2023-04-19T01:05:10;10.10;;;4.47;;
79412;SDS011;68863;49.528;11.010;2023-04-19T01:06:10;8.85;;;4.00;;
79412;SDS011;68863;49.528;11.010;2023-04-19T01:07:11;13.00;;;4.20;;
79412;SDS011;68863;49.528;11.010;2023-04-19T01:08:12;10.50;;;4.20;;
79412;SDS011;68863;49.528;11.010;2023-04-19T01:09:12;10.15;;;3.92;;
79412;SDS011;68863;49.528;11.010;2023-04-19T01:10:13;9.85;;;4.10;;
79412;SDS011;68863;49.528;11.010;2023-04-19T01:11:13;9.48;;;3.72;;
79412;SDS011;68863;49.528;11.010;2023-04-19T01:12:13;10.17;;;3.97;;
79412;SDS011;68863;49.528;11.010;2023-04-19T01:13:14;9.23;;;4.13;;
79412;SDS011;68863;49.528;11.010;2023-04-19T01:14:14;10.73;;;4.88;;
79412;SDS011;68863;49.528;11.010;2023-04-19T01:15:15;9.40;;;4.25;;
79412;SDS011;68863;49.528;11.010;2023-04-19T01:16:15;11.10;;;4.15;;
79412;SDS011;68863;49.528;11.010;2023-04-19T01:17:15;10.63;;;4.43;;
79412;SDS011;68863;49.528;11.010;2023-04-19T01:18:17;10.25;;;4.20;;
79412;SDS011;68863;49.528;11.010;2023-04-19T01:19:18;10.18;;;4.10;;
79412;SDS011;68863;49.528;11.010;2023-04-19T01:23:47;9.63;;;4.10;;
79412;SDS011;68863;49.528;11.010;2023-04-19T01:24:47;9.68;;;5.35;;
79412;SDS011;68863;49.528;11.010;2023-04-19T01:25:47;11.03;;;4.63;;
79412;SDS011;68863;49.528;11.010;2023-04-19T01:26:49;9.93;;;3.90;;
79412;SDS011;68863;49.528;11.010;2023-04-19T01:27:49;11.07;;;4.40;;
79412;SDS011;68863;49.528;11.010;2023-04-19T01:28:49;10.70;;;4.50;;
79412;SDS011;68863;49.528;11.010;2023-04-19T01:29:49;10.50;;;4.38;;
79412;SDS011;68863;49.528;11.010;2023-04-19T01:30:50;9.30;;;4.10;;
79412;SDS011;68863;49.528;11.010;2023-04-19T01:32:52;10.33;;;4.60;;
79412;SDS011;68863;49.528;11.010;2023-04-19T01:33:53;9.80;;;4.43;;
79412;SDS011;68863;49.528;11.010;2023-04-19T01:34:53;9.10;;;3.50;;
79412;SDS011;68863;49.528;11.010;2023-04-19T01:35:53;9.00;;;3.83;;
79412;SDS011;68863;49.528;11.010;2023-04-19T01:36:53;8.75;;;3.88;;
79412;SDS011;68863;49.528;11.010;2023-04-19T01:37:54;9.65;;;4.53;;
79412;SDS011;68863;49.528;11.010;2023-04-19T01:38:56;10.40;;;3.42;;
79412;SDS011;68863;49.528;11.010;2023-04-19T01:39:56;9.70;;;4.45;;
79412;SDS011;68863;49.528;11.010;2023-04-19T01:40:56;10.17;;;4.63;;
79412;SDS011;68863;49.528;11.010;2023-04-19T01:41:57;12.98;;;4.47;;
79412;SDS011;68863;49.528;11.010;2023-04-19T01:42:57;10.77;;;4.23;;
79412;SDS011;68863;49.528;11.010;2023-04-19T01:43:57;10.67;;;4.50;;
79412;SDS011;68863;49.528;11.010;2023-04-19T01:44:59;13.25;;;5.43;;
79412;SDS011;68863;49.528;11.010;2023-04-19T01:46:00;10.18;;;4.45;;
79412;SDS011;68863;49.528;11.010;2023-04-19T01:47:00;12.45;;;5.38;;
79412;SDS011;68863;49.528;11.010;2023-04-19T01:48:01;10.60;;;4.90;;
79412;SDS011;68863;49.528;11.010;2023-04-19T01:49:03;10.48;;;4.88;;
79412;SDS011;68863;49.528;11.010;2023-04-19T01:50:04;11.50;;;5.22;;
79412;SDS011;68863;49.528;11.010;2023-04-19T01:51:04;10.43;;;4.50;;
79412;SDS011;68863;49.528;11.010;2023-04-19T01:52:05;12.15;;;4.95;;
79412;SDS011;68863;49.528;11.010;2023-04-19T01:53:05;9.50;;;4.20;;
79412;SDS011;68863;49.528;11.010;2023-04-19T01:54:05;9.97;;;3.90;;
79412;SDS011;68863;49.528;11.010;2023-04-19T01:55:05;8.15;;;3.40;;
79412;SDS011;68863;49.528;11.010;2023-04-19T01:56:06;10.23;;;4.32;;
79412;SDS011;68863;49.528;11.010;2023-04-19T01:57:06;10.40;;;4.47;;
79412;SDS011;68863;49.528;11.010;2023-04-19T01:58:06;9.83;;;4.07;;
79412;SDS011;68863;49.528;11.010;2023-04-19T01:59:07;9.45;;;3.97;;
79412;SDS011;68863;49.528;11.010;2023-04-19T02:00:07;8.37;;;4.27;;
79412;SDS011;68863;49.528;11.010;2023-04-19T02:01:09;9.43;;;3.70;;
79412;SDS011;68863;49.528;11.010;2023-04-19T02:03:11;8.50;;;4.10;;
79412;SDS011;68863;49.528;11.010;2023-04-19T02:04:11;9.07;;;4.13;;
79412;SDS011;68863;49.528;11.010;2023-04-19T02:05:12;9.32;;;4.10;;
79412;SDS011;68863;49.528;11.010;2023-04-19T02:06:12;10.47;;;4.83;;
79412;SDS011;68863;49.528;11.010;2023-04-19T02:07:13;11.23;;;4.45;;
79412;SDS011;68863;49.528;11.010;2023-04-19T02:08:13;9.20;;;4.20;;
79412;SDS011;68863;49.528;11.010;2023-04-19T02:09:13;10.47;;;3.93;;
79412;SDS011;68863;49.528;11.010;2023-04-19T02:10:13;10.10;;;4.30;;
79412;SDS011;68863;49.528;11.010;2023-04-19T02:11:14;11.50;;;4.70;;
79412;SDS011;68863;49.528;11.010;2023-04-19T02:12:14;8.13;;;3.80;;
79412;SDS011;68863;49.528;11.010;2023-04-19T02:13:15;8.27;;;3.92;;
79412;SDS011;68863;49.528;11.010;2023-04-19T02:14:15;9.07;;;4.10;;
79412;SDS011;68863;49.528;11.010;2023-04-19T02:15:15;10.90;;;4.67;;
79412;SDS011;68863;49.528;11.010;2023-04-19T02:16:16;10.15;;;4.13;;
79412;SDS011;68863;49.528;11.010;2023-04-19T02:17:16;9.45;;;4.32;;
79412;SDS011;68863;49.528;11.010;2023-04-19T02:18:16;9.30;;;3.77;;
79412;SDS011;68863;49.528;11.010;2023-04-19T02:19:17;10.13;;;4.10;;
79412;SDS011;68863;49.528;11.010;2023-04-19T02:20:17;9.33;;;4.30;;
79412;SDS011;68863;49.528;11.010;2023-04-19T02:21:17;9.48;;;4.15;;
79412;SDS011;68863;49.528;11.010;2023-04-19T02:22:18;8.80;;;4.43;;
79412;SDS011;68863;49.528;11.010;2023-04-19T02:23:18;11.27;;;4.60;;
79412;SDS011;68863;49.528;11.010;2023-04-19T02:24:19;9.50;;;4.10;;
79412;SDS011;68863;49.528;11.010;2023-04-19T02:25:19;10.53;;;4.33;;
79412;SDS011;68863;49.528;11.010;2023-04-19T02:26:19;10.23;;;3.95;;
79412;SDS011;68863;49.528;11.010;2023-04-19T02:27:20;11.80;;;5.20;;
79412;SDS011;68863;49.528;11.010;2023-04-19T02:28:21;8.80;;;3.92;;
79412;SDS011;68863;49.528;11.010;2023-04-19T02:29:21;10.25;;;4.30;;
79412;SDS011;68863;49.528;11.010;2023-04-19T02:30:21;8.60;;;3.85;;
79412;SDS011;68863;49.528;11.010;2023-04-19T02:31:22;9.63;;;4.32;;
79412;SDS011;68863;49.528;11.010;2023-04-19T02:32:22;9.47;;;4.43;;
79412;SDS011;68863;49.528;11.010;2023-04-19T02:33:24;9.55;;;3.95;;
79412;SDS011;68863;49.528;11.010;2023-04-19T02:34:26;11.27;;;4.43;;
79412;SDS011;68863;49.528;11.010;2023-04-19T02:35:26;8.70;;;3.65;;
79412;SDS011;68863;49.528;11.010;2023-04-19T02:36:27;10.52;;;4.15;;
79412;SDS011;68863;49.528;11.010;2023-04-19T02:37:27;7.80;;;3.50;;
79412;SDS011;68863;49.528;11.010;2023-04-19T02:38:27;9.43;;;4.40;;
79412;SDS011;68863;49.528;11.010;2023-04-19T02:39:28;9.67;;;4.00;;
79412;SDS011;68863;49.528;11.010;2023-04-19T02:40:28;12.53;;;4.80;;
79412;SDS011;68863;49.528;11.010;2023-04-19T02:41:31;11.15;;;4.97;;
79412;SDS011;68863;49.528;11.010;2023-04-19T02:42:35;10.32;;;3.97;;
79412;SDS011;68863;49.528;11.010;2023-04-19T02:43:42;9.63;;;4.55;;
79412;SDS011;68863;49.528;11.010;2023-04-19T02:44:43;9.63;;;3.93;;
79412;SDS011;68863;49.528;11.010;2023-04-19T02:45:43;9.27;;;4.18;;
79412;SDS011;68863;49.528;11.010;2023-04-19T02:46:47;9.50;;;3.97;;
79412;SDS011;68863;49.528;11.010;2023-04-19T02:47:48;10.30;;;4.28;;
79412;SDS011;68863;49.528;11.010;2023-04-19T02:48:49;9.38;;;3.95;;
79412;SDS011;68863;49.528;11.010;2023-04-19T02:49:49;11.65;;;4.75;;
79412;SDS011;68863;49.528;11.010;2023-04-19T02:50:49;9.77;;;4.03;;
79412;SDS011;68863;49.528;11.010;2023-04-19T02:51:50;9.43;;;4.43;;
79412;SDS011;68863;49.528;11.010;2023-04-19T02:52:51;9.82;;;4.20;;
79412;SDS011;68863;49.528;11.010;2023-04-19T02:53:52;9.90;;;5.13;;
79412;SDS011;68863;49.528;11.010;2023-04-19T02:54:52;9.13;;;4.40;;
79412;SDS011;68863;49.528;11.010;2023-04-19T02:55:52;11.40;;;4.97;;
79412;SDS011;68863;49.528;11.010;2023-04-19T02:56:52;8.80;;;4.10;;
79412;SDS011;68863;49.528;11.010;2023-04-19T02:57:53;10.20;;;4.37;;
79412;SDS011;68863;49.528;11.010;2023-04-19T02:58:53;10.90;;;4.55;;
79412;SDS011;68863;49.528;11.010;2023-04-19T02:59:54;9.57;;;4.25;;
79412;SDS011;68863;49.528;11.010;2023-04-19T03:00:54;10.43;;;4.23;;
79412;SDS011;68863;49.528;11.010;2023-04-19T03:01:54;10.73;;;4.43;;
79412;SDS011;68863;49.528;11.010;2023-04-19T03:02:55;10.27;;;4.43;;
79412;SDS011;68863;49.528;11.010;2023-04-19T03:03:55;10.50;;;4.60;;
79412;SDS011;68863;49.528;11.010;2023-04-19T03:04:56;9.18;;;4.18;;
79412;SDS011;68863;49.528;11.010;2023-04-19T03:05:56;8.48;;;3.95;;
79412;SDS011;68863;49.528;11.010;2023-04-19T03:06:56;9.48;;;4.43;;
79412;SDS011;68863;49.528;11.010;2023-04-19T03:07:57;8.50;;;3.97;;
79412;SDS011;68863;49.528;11.010;2023-04-19T03:08:57;9.65;;;4.45;;
79412;SDS011;68863;49.528;11.010;2023-04-19T03:09:57;11.33;;;4.47;;
79412;SDS011;68863;49.528;11.010;2023-04-19T03:10:58;10.27;;;4.57;;
79412;SDS011;68863;49.528;11.010;2023-04-19T03:11:58;11.70;;;4.43;;
79412;SDS011;68863;49.528;11.010;2023-04-19T03:12:58;10.73;;;4.90;;
79412;SDS011;68863;49.528;11.010;2023-04-19T03:13:58;8.53;;;3.67;;
79412;SDS011;68863;49.528;11.010;2023-04-19T03:14:59;10.65;;;4.30;;
79412;SDS011;68863;49.528;11.010;2023-04-19T03:15:59;9.10;;;3.90;;
79412;SDS011;68863;49.528;11.010;2023-04-19T03:17:00;8.93;;;4.00;;
79412;SDS011;68863;49.528;11.010;2023-04-19T03:18:00;7.93;;;3.83;;
79412;SDS011;68863;49.528;11.010;2023-04-19T03:19:00;10.40;;;4.43;;
79412;SDS011;68863;49.528;11.010;2023-04-19T03:20:01;10.00;;;4.20;;
79412;SDS011;68863;49.528;11.010;2023-04-19T03:21:02;9.48;;;4.18;;
79412;SDS011;68863;49.528;11.010;2023-04-19T03:22:02;10.13;;;3.88;;
79412;SDS011;68863;49.528;11.010;2023-04-19T03:23:02;10.87;;;4.47;;
79412;SDS011;68863;49.528;11.010;2023-04-19T03:24:03;10.82;;;4.63;;
79412;SDS011;68863;49.528;11.010;2023-04-19T03:25:03;9.15;;;4.13;;
79412;SDS011;68863;49.528;11.010;2023-04-19T03:26:04;10.05;;;4.35;;
79412;SDS011;68863;49.528;11.010;2023-04-19T03:27:04;10.13;;;4.50;;
79412;SDS011;68863;49.528;11.010;2023-04-19T03:28:05;10.27;;;4.50;;
79412;SDS011;68863;49.528;11.010;2023-04-19T03:29:05;9.98;;;4.07;;
79412;SDS011;68863;49.528;11.010;2023-04-19T03:30:05;10.88;;;4.70;;
79412;SDS011;68863;49.528;11.010;2023-04-19T03:31:06;10.40;;;4.50;;
79412;SDS011;68863;49.528;11.010;2023-04-19T03:32:06;11.23;;;4.87;;
79412;SDS011;68863;49.528;11.010;2023-04-19T03:33:07;9.97;;;4.03;;
79412;SDS011;68863;49.528;11.010;2023-04-19T03:34:07;10.80;;;4.47;;
79412;SDS011;68863;49.528;11.010;2023-04-19T03:35:07;10.40;;;4.43;;
79412;SDS011;68863;49.528;11.010;2023-04-19T03:36:08;9.65;;;4.32;;
79412;SDS011;68863;49.528;11.010;2023-04-19T03:37:08;9.82;;;4.07;;
79412;SDS011;68863;49.528;11.010;2023-04-19T03:38:09;10.23;;;4.18;;
79412;SDS011;68863;49.528;11.010;2023-04-19T03:39:09;10.45;;;5.03;;
79412;SDS011;68863;49.528;11.010;2023-04-19T03:40:09;10.68;;;4.53;;
79412;SDS011;68863;49.528;11.010;2023-04-19T03:41:19;11.30;;;4.05;;
79412;SDS011;68863;49.528;11.010;2023-04-19T03:42:21;10.52;;;4.28;;
79412;SDS011;68863;49.528;11.010;2023-04-19T03:43:21;9.93;;;4.13;;
79412;SDS011;68863;49.528;11.010;2023-04-19T03:44:21;10.15;;;4.40;;
79412;SDS011;68863;49.528;11.010;2023-04-19T03:45:22;9.50;;;4.07;;
79412;SDS011;68863;49.528;11.010;2023-04-19T03:46:22;10.27;;;4.55;;
79412;SDS011;68863;49.528;11.010;2023-04-19T03:47:23;10.77;;;4.85;;
79412;SDS011;68863;49.528;11.010;2023-04-19T03:48:23;10.05;;;4.18;;
79412;SDS011;68863;49.528;11.010;2023-04-19T03:49:23;8.73;;;3.63;;
79412;SDS011;68863;49.528;11.010;2023-04-19T03:50:24;9.27;;;3.90;;
79412;SDS011;68863;49.528;11.010;2023-04-19T03:51:24;9.60;;;4.37;;
79412;SDS011;68863;49.528;11.010;2023-04-19T03:52:26;10.13;;;4.15;;
79412;SDS011;68863;49.528;11.010;2023-04-19T03:53:26;10.70;;;4.32;;
79412;SDS011;68863;49.528;11.010;2023-04-19T03:54:26;10.47;;;4.27;;
79412;SDS011;68863;49.528;11.010;2023-04-19T03:55:27;10.53;;;4.33;;
79412;SDS011;68863;49.528;11.010;2023-04-19T03:56:27;11.10;;;4.78;;
79412;SDS011;68863;49.528;11.010;2023-04-19T03:57:27;11.35;;;4.80;;
79412;SDS011;68863;49.528;11.010;2023-04-19T03:58:28;8.93;;;4.03;;
79412;SDS011;68863;49.528;11.010;2023-04-19T03:59:28;10.07;;;4.50;;
79412;SDS011;68863;49.528;11.010;2023-04-19T04:00:28;11.73;;;5.10;;
79412;SDS011;68863;49.528;11.010;2023-04-19T04:01:28;9.23;;;4.07;;
79412;SDS011;68863;49.528;11.010;2023-04-19T04:02:29;10.57;;;4.43;;
79412;SDS011;68863;49.528;11.010;2023-04-19T04:03:29;10.17;;;4.07;;
79412;SDS011;68863;49.528;11.010;2023-04-19T04:04:29;11.35;;;4.55;;
79412;SDS011;68863;49.528;11.010;2023-04-19T04:05:29;9.50;;;3.85;;
79412;SDS011;68863;49.528;11.010;2023-04-19T04:06:30;13.13;;;5.13;;
79412;SDS011;68863;49.528;11.010;2023-04-19T04:07:30;9.57;;;4.53;;
79412;SDS011;68863;49.528;11.010;2023-04-19T04:08:30;10.93;;;4.35;;
79412;SDS011;68863;49.528;11.010;2023-04-19T04:09:31;10.20;;;4.83;;
79412;SDS011;68863;49.528;11.010;2023-04-19T04:10:31;8.77;;;3.90;;
79412;SDS011;68863;49.528;11.010;2023-04-19T04:11:31;9.90;;;4.20;;
79412;SDS011;68863;49.528;11.010;2023-04-19T04:12:31;8.98;;;4.15;;
79412;SDS011;68863;49.528;11.010;2023-04-19T04:13:32;13.00;;;4.43;;
79412;SDS011;68863;49.528;11.010;2023-04-19T04:14:32;10.75;;;4.32;;
79412;SDS011;68863;49.528;11.010;2023-04-19T04:15:32;10.88;;;4.15;;
79412;SDS011;68863;49.528;11.010;2023-04-19T04:16:32;8.73;;;4.10;;
79412;SDS011;68863;49.528;11.010;2023-04-19T04:17:33;9.83;;;4.17;;
79412;SDS011;68863;49.528;11.010;2023-04-19T04:18:33;9.07;;;3.87;;
79412;SDS011;68863;49.528;11.010;2023-04-19T04:19:33;10.10;;;4.63;;
79412;SDS011;68863;49.528;11.010;2023-04-19T04:20:34;9.88;;;4.20;;
79412;SDS011;68863;49.528;11.010;2023-04-19T04:21:34;9.47;;;4.43;;
79412;SDS011;68863;49.528;11.010;2023-04-19T04:22:34;11.27;;;4.50;;
79412;SDS011;68863;49.528;11.010;2023-04-19T04:23:34;9.73;;;5.00;;
79412;SDS011;68863;49.528;11.010;2023-04-19T04:24:38;9.68;;;3.88;;
79412;SDS011;68863;49.528;11.010;2023-04-19T04:25:40;11.27;;;4.55;;
79412;SDS011;68863;49.528;11.010;2023-04-19T04:26:41;10.38;;;4.47;;
79412;SDS011;68863;49.528;11.010;2023-04-19T04:27:42;10.18;;;4.43;;
79412;SDS011;68863;49.528;11.010;2023-04-19T04:28:45;10.68;;;4.40;;
79412;SDS011;68863;49.528;11.010;2023-04-19T04:29:46;9.63;;;4.32;;
79412;SDS011;68863;49.528;11.010;2023-04-19T04:30:46;11.70;;;4.63;;
79412;SDS011;68863;49.528;11.010;2023-04-19T04:31:46;10.27;;;4.23;;
79412;SDS011;68863;49.528;11.010;2023-04-19T04:32:47;10.88;;;4.32;;
79412;SDS011;68863;49.528;11.010;2023-04-19T04:33:50;10.20;;;4.35;;
79412;SDS011;68863;49.528;11.010;2023-04-19T04:34:52;10.32;;;4.82;;
79412;SDS011;68863;49.528;11.010;2023-04-19T04:35:52;9.07;;;3.67;;
79412;SDS011;68863;49.528;11.010;2023-04-19T04:36:53;11.30;;;4.25;;
79412;SDS011;68863;49.528;11.010;2023-04-19T04:37:53;9.55;;;4.05;;
79412;SDS011;68863;49.528;11.010;2023-04-19T04:38:54;9.68;;;3.63;;
79412;SDS011;68863;49.528;11.010;2023-04-19T04:39:56;9.77;;;4.45;;
79412;SDS011;68863;49.528;11.010;2023-04-19T04:40:56;8.37;;;4.20;;
79412;SDS011;68863;49.528;11.010;2023-04-19T04:41:57;9.35;;;4.43;;
79412;SDS011;68863;49.528;11.010;2023-04-19T04:42:58;10.23;;;4.25;;
79412;SDS011;68863;49.528;11.010;2023-04-19T04:43:59;9.73;;;4.00;;
79412;SDS011;68863;49.528;11.010;2023-04-19T04:45:03;9.45;;;4.45;;
79412;SDS011;68863;49.528;11.010;2023-04-19T04:46:04;8.70;;;3.95;;
79412;SDS011;68863;49.528;11.010;2023-04-19T04:47:05;10.75;;;4.80;;
79412;SDS011;68863;49.528;11.010;2023-04-19T04:48:05;9.68;;;4.28;;
79412;SDS011;68863;49.528;11.010;2023-04-19T04:49:05;10.35;;;4.35;;
79412;SDS011;68863;49.528;11.010;2023-04-19T04:50:06;10.32;;;4.80;;
79412;SDS011;68863;49.528;11.010;2023-04-19T04:51:07;9.13;;;3.95;;
79412;SDS011;68863;49.528;11.010;2023-04-19T04:52:07;9.80;;;4.30;;
79412;SDS011;68863;49.528;11.010;2023-04-19T04:53:08;13.18;;;5.22;;
79412;SDS011;68863;49.528;11.010;2023-04-19T04:54:11;10.65;;;4.85;;
79412;SDS011;68863;49.528;11.010;2023-04-19T04:55:11;9.70;;;4.10;;
79412;SDS011;68863;49.528;11.010;2023-04-19T04:56:11;10.00;;;4.80;;
79412;SDS011;68863;49.528;11.010;2023-04-19T04:57:11;11.50;;;4.93;;
79412;SDS011;68863;49.528;11.010;2023-04-19T04:58:12;11.93;;;5.10;;
79412;SDS011;68863;49.528;11.010;2023-04-19T04:59:12;9.63;;;4.43;;
79412;SDS011;68863;49.528;11.010;2023-04-19T05:00:12;12.07;;;4.90;;
79412;SDS011;68863;49.528;11.010;2023-04-19T05:01:13;11.50;;;4.65;;
79412;SDS011;68863;49.528;11.010;2023-04-19T05:02:13;10.85;;;4.90;;
79412;SDS011;68863;49.528;11.010;2023-04-19T05:03:14;10.27;;;4.72;;
79412;SDS011;68863;49.528;11.010;2023-04-19T05:04:15;10.73;;;5.30;;
79412;SDS011;68863;49.528;11.010;2023-04-19T05:05:15;10.40;;;4.37;;
79412;SDS011;68863;49.528;11.010;2023-04-19T05:06:15;10.05;;;4.38;;
79412;SDS011;68863;49.528;11.010;2023-04-19T05:07:16;10.65;;;4.88;;
79412;SDS011;68863;49.528;11.010;2023-04-19T05:08:16;11.25;;;5.40;;
79412;SDS011;68863;49.528;11.010;2023-04-19T05:09:16;10.63;;;5.27;;
79412;SDS011;68863;49.528;11.010;2023-04-19T05:10:17;11.13;;;5.57;;
79412;SDS011;68863;49.528;11.010;2023-04-19T05:11:17;10.77;;;4.72;;
79412;SDS011;68863;49.528;11.010;2023-04-19T05:12:17;10.48;;;4.55;;
79412;SDS011;68863;49.528;11.010;2023-04-19T05:13:18;11.67;;;4.87;;
79412;SDS011;68863;49.528;11.010;2023-04-19T05:14:18;11.23;;;5.00;;
79412;SDS011;68863;49.528;11.010;2023-04-19T05:15:18;10.63;;;4.70;;
79412;SDS011;68863;49.528;11.010;2023-04-19T05:16:18;10.38;;;5.40;;
79412;SDS011;68863;49.528;11.010;2023-04-19T05:17:19;10.73;;;5.15;;
79412;SDS011;68863;49.528;11.010;2023-04-19T05:18:19;10.23;;;4.63;;
79412;SDS011;68863;49.528;11.010;2023-04-19T05:19:20;10.00;;;4.53;;
79412;SDS011;68863;49.528;11.010;2023-04-19T05:20:20;10.73;;;5.37;;
79412;SDS011;68863;49.528;11.010;2023-04-19T05:21:20;11.63;;;4.97;;
79412;SDS011;68863;49.528;11.010;2023-04-19T05:22:21;11.55;;;4.68;;
79412;SDS011;68863;49.528;11.010;2023-04-19T05:23:22;10.77;;;4.63;;
79412;SDS011;68863;49.528;11.010;2023-04-19T05:24:22;10.80;;;4.95;;
79412;SDS011;68863;49.528;11.010;2023-04-19T05:25:22;10.48;;;4.63;;
79412;SDS011;68863;49.528;11.010;2023-04-19T05:26:23;10.18;;;4.55;;
79412;SDS011;68863;49.528;11.010;2023-04-19T05:27:23;10.75;;;5.18;;
79412;SDS011;68863;49.528;11.010;2023-04-19T05:28:23;9.85;;;4.15;;
79412;SDS011;68863;49.528;11.010;2023-04-19T05:29:23;9.37;;;5.07;;
79412;SDS011;68863;49.528;11.010;2023-04-19T05:30:24;11.03;;;4.70;;
79412;SDS011;68863;49.528;11.010;2023-04-19T05:31:24;11.67;;;5.07;;
79412;SDS011;68863;49.528;11.010;2023-04-19T05:32:24;9.55;;;4.50;;
79412;SDS011;68863;49.528;11.010;2023-04-19T05:33:26;9.65;;;4.00;;
79412;SDS011;68863;49.528;11.010;2023-04-19T05:34:26;10.55;;;5.03;;
79412;SDS011;68863;49.528;11.010;2023-04-19T05:35:27;10.45;;;4.47;;
79412;SDS011;68863;49.528;11.010;2023-04-19T05:36:27;10.35;;;4.63;;
79412;SDS011;68863;49.528;11.010;2023-04-19T05:37:27;10.98;;;5.10;;
79412;SDS011;68863;49.528;11.010;2023-04-19T05:38:29;11.38;;;4.82;;
79412;SDS011;68863;49.528;11.010;2023-04-19T05:39:29;10.45;;;5.10;;
79412;SDS011;68863;49.528;11.010;2023-04-19T05:40:30;11.77;;;5.47;;
79412;SDS011;68863;49.528;11.010;2023-04-19T05:41:30;12.10;;;5.18;;
79412;SDS011;68863;49.528;11.010;2023-04-19T05:42:30;12.37;;;5.50;;
79412;SDS011;68863;49.528;11.010;2023-04-19T05:43:31;13.30;;;5.17;;
79412;SDS011;68863;49.528;11.010;2023-04-19T05:44:31;12.63;;;5.55;;
79412;SDS011;68863;49.528;11.010;2023-04-19T05:45:31;12.32;;;5.43;;
79412;SDS011;68863;49.528;11.010;2023-04-19T05:46:32;14.47;;;5.63;;
79412;SDS011;68863;49.528;11.010;2023-04-19T05:47:32;14.38;;;6.32;;
79412;SDS011;68863;49.528;11.010;2023-04-19T05:48:32;24.88;;;13.13;;
79412;SDS011;68863;49.528;11.010;2023-04-19T05:49:32;24.10;;;11.70;;
79412;SDS011;68863;49.528;11.010;2023-04-19T05:50:33;24.65;;;12.18;;
79412;SDS011;68863;49.528;11.010;2023-04-19T05:52:35;17.63;;;9.10;;
79412;SDS011;68863;49.528;11.010;2023-04-19T05:53:36;17.17;;;8.57;;
79412;SDS011;68863;49.528;11.010;2023-04-19T05:54:36;14.00;;;7.57;;
79412;SDS011;68863;49.528;11.010;2023-04-19T05:55:36;13.65;;;6.72;;
79412;SDS011;68863;49.528;11.010;2023-04-19T05:56:37;13.43;;;5.90;;
79412;SDS011;68863;49.528;11.010;2023-04-19T05:57:38;18.65;;;9.85;;
79412;SDS011;68863;49.528;11.010;2023-04-19T05:58:38;12.23;;;6.20;;
79412;SDS011;68863;49.528;11.010;2023-04-19T05:59:38;11.60;;;5.80;;
79412;SDS011;68863;49.528;11.010;2023-04-19T06:00:38;11.40;;;5.33;;
79412;SDS011;68863;49.528;11.010;2023-04-19T06:01:39;12.25;;;5.63;;
79412;SDS011;68863;49.528;11.010;2023-04-19T06:02:39;14.55;;;6.55;;
79412;SDS011;68863;49.528;11.010;2023-04-19T06:03:39;14.88;;;7.60;;